Decoded Metar for KAQW (NORTH ADAMS in MA, USA) (IATA:AQW) | Meteo·Mobile Aviation Weather
aviador You're here:

KAQW Decoded Metar

NORTH ADAMS in MA, USA
Report Time2018-08-19 13:52:00
UTC Time2018-08-19 14:06:42
Flight Rules vfr VFR
Wind080° at 07 kt
W.Decomp.*RWY 11: 6.7 kt HW 1.9 kt LCW
W.Rank080° ranks 10
Current wind is above 080° avg. (6.5)
Visibility9999 m
Phenomena:N/A
Clouds:Few 039 Hf
Expected CloudBase > 3,600 ft AGL from Temp-Dew spread
CeilingNone
Temp22°C (ISA +8)
Dew Point13°C (57% RH)
AAT20.4°C
QNH1017 hPa
Density Alt1,686 ft
Elevation653 ft
Report Wrong Elevation
Raw Report
KAQW 191352Z AUTO 08007KT 040V110 10SM FEW039 22/13 A3004 RMK AO2
SLP170 T02170133=

Extra information for KAQW:More info

Metar Taf Metar & Taf Last 4 Metars F.Rules Stats Wind Profile Meteogram Temp Stats Airport Information Weather charts Add Link Nearby VenuesMetar ALERT Operation Metar Decoded Social comments

AIRNAV info for KAQW